Time;durP1;ratioP1;P1;durP2;ratioP2;P2;SDS_P1;SDS_P2;PMS_P1;PMS_P2;Temp;Humidity;BMP_temperature;BMP_pressure;BME280_temperature;BME280_humidity;BME280_pressure;Samples;Min_cycle;Max_cycle;Signal;HPM_P1;HPM_P2
2021/04/09 00:01:57;;;;;;;26.33;14.02;;;;;;;5.02;55.17;101665.16;5078089;28;20201;-73
2021/04/09 00:04:24;;;;;;;34.13;15.30;;;;;;;5.03;55.59;101654.69;5073929;28;20056;-74
2021/04/09 00:06:50;;;;;;;28.27;14.45;;;;;;;5.05;55.16;101650.22;5063310;28;20109;-74
2021/04/09 00:09:17;;;;;;;30.23;14.95;;;;;;;5.01;55.39;101647.91;5075393;28;20087;-73
2021/04/09 00:11:43;;;;;;;30.40;15.65;;;;;;;5.01;55.10;101640.09;5080874;28;20117;-74
2021/04/09 00:14:12;;;;;;;28.33;14.63;;;;;;;4.97;55.41;101646.41;5070730;28;20059;-74
2021/04/09 00:16:39;;;;;;;23.55;13.95;;;;;;;5.01;55.04;101640.09;5064663;28;20484;-73
2021/04/09 00:19:07;;;;;;;27.70;15.07;;;;;;;5.00;55.04;101643.63;5067305;28;20500;-74
2021/04/09 00:21:34;;;;;;;31.70;14.53;;;;;;;4.98;55.11;101638.53;5074706;28;20147;-74
2021/04/09 00:24:00;;;;;;;28.90;13.90;;;;;;;4.97;55.26;101628.22;5078773;28;20044;-74
2021/04/09 00:26:29;;;;;;;35.60;14.32;;;;;;;4.92;55.30;101620.66;5070072;28;20736;-74
2021/04/09 00:28:55;;;;;;;30.30;16.02;;;;;;;4.94;55.46;101624.03;5053286;28;20047;-74
2021/04/09 00:31:22;;;;;;;26.85;14.07;;;;;;;4.92;55.40;101626.72;5057422;28;20060;-74
2021/04/09 00:33:48;;;;;;;34.47;15.80;;;;;;;4.93;55.48;101622.34;5083709;28;20867;-74
2021/04/09 00:36:15;;;;;;;27.17;15.27;;;;;;;4.84;55.20;101617.69;5079443;28;20043;-74
2021/04/09 00:38:41;;;;;;;30.55;14.75;;;;;;;4.81;56.12;101610.09;5081075;28;20520;-74
2021/04/09 00:41:07;;;;;;;27.30;14.25;;;;;;;4.77;55.46;101611.19;5063788;28;20052;-74
2021/04/09 00:43:33;;;;;;;34.88;15.93;;;;;;;4.70;55.45;101593.34;5072725;28;20071;-74
2021/04/09 00:45:59;;;;;;;34.47;15.10;;;;;;;4.74;55.92;101607.00;5066056;28;20044;-74
2021/04/09 00:48:25;;;;;;;26.30;14.73;;;;;;;4.73;55.88;101597.53;5077348;28;20471;-74
2021/04/09 00:50:50;;;;;;;32.25;15.73;;;;;;;4.74;56.16;101591.41;5079049;28;20044;-74
2021/04/09 00:53:18;;;;;;;30.95;14.90;;;;;;;4.71;55.84;101587.22;5060714;28;20476;-74
2021/04/09 00:55:44;;;;;;;27.30;15.32;;;;;;;4.71;56.46;101589.00;5080081;28;20088;-74
2021/04/09 00:58:11;;;;;;;29.02;15.15;;;;;;;4.70;56.66;101585.53;5050742;28;20101;-74
2021/04/09 01:00:37;;;;;;;29.27;15.57;;;;;;;4.73;56.44;101595.75;5079492;28;20062;-74
2021/04/09 01:03:03;;;;;;;30.13;15.43;;;;;;;4.72;56.37;101586.31;5084222;28;20060;-74
2021/04/09 01:05:32;;;;;;;29.83;15.52;;;;;;;4.73;56.87;101592.34;5078829;28;20056;-74
2021/04/09 01:08:01;;;;;;;27.05;15.70;;;;;;;4.63;56.79;101575.63;5070843;28;20056;-74
2021/04/09 01:10:28;;;;;;;24.90;14.48;;;;;;;4.61;57.06;101583.50;5073788;28;20098;-74
2021/04/09 01:12:54;;;;;;;31.17;15.60;;;;;;;4.63;57.09;101580.81;5065813;28;20847;-74
2021/04/09 01:15:21;;;;;;;30.67;16.15;;;;;;;4.64;57.06;101574.66;5083764;28;20560;-74
2021/04/09 01:18:03;;;;;;;30.58;16.48;;;;;;;4.61;57.18;101572.28;5059507;28;20054;-74
2021/04/09 01:20:40;;;;;;;31.77;15.30;;;;;;;4.52;57.26;101558.03;5084153;28;20078;-74
2021/04/09 01:23:31;;;;;;;27.63;15.75;;;;;;;4.49;57.36;101550.44;5070167;28;20682;-74
2021/04/09 01:26:12;;;;;;;30.02;15.70;;;;;;;4.55;57.31;101556.09;5076419;28;20048;-74
2021/04/09 01:29:06;;;;;;;31.65;15.20;;;;;;;4.58;57.68;101559.44;5068466;28;20125;-74
2021/04/09 01:31:37;;;;;;;30.45;16.52;;;;;;;4.59;57.86;101548.97;5064916;28;20495;-73
2021/04/09 01:34:05;;;;;;;27.20;14.75;;;;;;;4.63;57.97;101550.47;5054176;28;20052;-73
2021/04/09 01:36:45;;;;;;;26.30;15.23;;;;;;;4.61;57.37;101541.09;5074043;28;20561;-73
2021/04/09 01:39:17;;;;;;;25.23;14.35;;;;;;;4.67;57.92;101544.16;5059813;28;20556;-74
2021/04/09 01:41:44;;;;;;;28.25;15.40;;;;;;;4.64;57.89;101536.53;5071906;28;20049;-73
2021/04/09 01:44:11;;;;;;;28.88;16.20;;;;;;;4.69;57.86;101539.69;5066099;28;20049;-73
2021/04/09 01:46:41;;;;;;;27.20;15.75;;;;;;;4.66;57.69;101545.06;5065453;28;20078;-73
2021/04/09 01:49:10;;;;;;;30.92;16.00;;;;;;;4.62;57.48;101535.78;5059095;28;20056;-73
2021/04/09 01:51:36;;;;;;;31.15;15.73;;;;;;;4.64;58.09;101536.53;5073783;28;20161;-73
2021/04/09 01:54:06;;;;;;;27.63;15.48;;;;;;;4.62;58.13;101527.97;5074042;28;20088;-74
2021/04/09 01:56:34;;;;;;;28.70;15.40;;;;;;;4.64;58.11;101531.31;5057055;28;20098;-74
2021/04/09 01:59:01;;;;;;;33.28;16.23;;;;;;;4.59;57.91;101528.19;5070667;28;20078;-74
2021/04/09 02:01:27;;;;;;;31.95;16.35;;;;;;;4.62;58.14;101530.56;5076534;28;20056;-73
2021/04/09 02:03:55;;;;;;;35.92;15.70;;;;;;;4.57;58.15;101522.22;5058717;28;20056;-73
2021/04/09 02:06:22;;;;;;;31.50;16.83;;;;;;;4.60;58.30;101523.81;5053922;28;20055;-74
2021/04/09 02:08:49;;;;;;;31.10;15.52;;;;;;;4.64;58.83;101523.53;5061111;28;20789;-73
2021/04/09 02:11:16;;;;;;;32.83;15.43;;;;;;;4.67;58.17;101517.34;5075789;28;20059;-73
2021/04/09 02:13:43;;;;;;;33.72;16.50;;;;;;;4.63;58.49;101516.66;5061871;28;20055;-73
2021/04/09 02:16:10;;;;;;;40.58;16.30;;;;;;;4.62;58.11;101516.75;5052978;28;20044;-73
2021/04/09 02:18:36;;;;;;;33.70;16.25;;;;;;;4.62;58.73;101509.78;5073662;28;20072;-74
2021/04/09 02:21:03;;;;;;;36.25;16.02;;;;;;;4.62;58.41;101503.75;5076187;28;20094;-73
2021/04/09 02:23:30;;;;;;;35.17;17.48;;;;;;;4.66;58.81;101497.44;5077457;28;20114;-73
2021/04/09 02:25:57;;;;;;;35.13;17.00;;;;;;;4.67;58.96;101497.38;5072612;28;20048;-74
2021/04/09 02:28:24;;;;;;;36.03;16.63;;;;;;;4.66;58.84;101492.25;5081938;28;20080;-73
2021/04/09 02:31:05;;;;;;;34.83;17.08;;;;;;;4.71;59.07;101495.44;5054311;28;20148;-74
2021/04/09 02:33:35;;;;;;;41.42;16.90;;;;;;;4.78;58.77;101495.88;5060780;28;20663;-74
2021/04/09 02:36:11;;;;;;;37.65;16.35;;;;;;;4.79;58.66;101497.56;5054499;28;20411;-74
2021/04/09 02:38:40;;;;;;;29.52;15.93;;;;;;;4.80;58.57;101496.63;5054800;28;20052;-73
2021/04/09 02:41:08;;;;;;;33.10;15.70;;;;;;;4.84;58.42;101491.16;5064465;28;20056;-73
2021/04/09 02:43:34;;;;;;;33.83;16.83;;;;;;;4.83;59.04;101488.66;5072175;28;20055;-74
2021/04/09 02:46:01;;;;;;;33.85;16.45;;;;;;;4.84;59.41;101496.38;5056900;28;20053;-73
2021/04/09 02:48:34;;;;;;;34.25;16.60;;;;;;;4.83;59.63;101486.06;5056393;28;20052;-74
2021/04/09 02:51:05;;;;;;;36.13;16.88;;;;;;;4.85;59.61;101499.78;5070244;28;20044;-73
2021/04/09 02:53:35;;;;;;;33.95;16.58;;;;;;;4.84;60.25;101496.38;5062577;28;20043;-73
2021/04/09 02:56:06;;;;;;;36.92;16.35;;;;;;;4.80;60.54;101489.66;5064716;28;20129;-73
2021/04/09 02:58:35;;;;;;;40.30;17.58;;;;;;;4.77;59.96;101483.84;5069954;28;20052;-73
2021/04/09 03:01:05;;;;;;;34.63;16.33;;;;;;;4.77;59.59;101487.25;5069061;28;20052;-74
2021/04/09 03:03:32;;;;;;;35.97;17.25;;;;;;;4.79;58.97;101487.19;5063515;28;20122;-74
2021/04/09 03:05:58;;;;;;;38.35;16.60;;;;;;;4.79;58.77;101481.97;5051546;28;20056;-73
2021/04/09 03:08:25;;;;;;;38.75;16.35;;;;;;;4.82;58.80;101473.97;5062975;28;20090;-73
2021/04/09 03:10:51;;;;;;;34.95;16.98;;;;;;;4.78;58.86;101470.72;5057669;28;20484;-73
2021/04/09 03:13:17;;;;;;;37.65;17.55;;;;;;;4.81;59.21;101477.53;5058292;28;20048;-74
2021/04/09 03:15:51;;;;;;;39.78;17.08;;;;;;;4.76;59.25;101469.97;5054877;28;20624;-73
2021/04/09 03:18:19;;;;;;;41.00;17.92;;;;;;;4.77;59.02;101468.25;5054531;28;20062;-73
2021/04/09 03:20:45;;;;;;;32.33;15.70;;;;;;;4.74;59.20;101458.84;5068440;28;20059;-73
2021/04/09 03:23:11;;;;;;;37.28;18.25;;;;;;;4.79;59.24;101462.00;5049761;28;20852;-73
2021/04/09 03:25:37;;;;;;;33.33;16.05;;;;;;;4.78;58.97;101455.13;5057728;28;20109;-73
2021/04/09 03:28:05;;;;;;;39.47;16.55;;;;;;;4.84;59.12;101459.13;5040541;28;20131;-73
2021/04/09 03:30:31;;;;;;;32.65;15.63;;;;;;;4.84;59.20;101461.72;5079609;28;20048;-73
2021/04/09 03:32:57;;;;;;;34.70;16.65;;;;;;;4.77;59.04;101450.03;5062651;28;20105;-73
2021/04/09 03:35:23;;;;;;;35.25;15.35;;;;;;;4.80;59.22;101460.22;5059445;28;20060;-73
2021/04/09 03:37:49;;;;;;;39.47;16.38;;;;;;;4.75;58.79;101445.75;5061664;28;20132;-73
2021/04/09 03:40:17;;;;;;;36.45;15.90;;;;;;;4.79;59.29;101438.63;5050716;28;20048;-74
2021/04/09 03:42:43;;;;;;;28.08;15.45;;;;;;;4.82;59.16;101445.38;5059771;28;20051;-72
2021/04/09 03:45:09;;;;;;;29.92;15.20;;;;;;;4.82;59.04;101430.66;5065808;28;20410;-72
2021/04/09 03:47:35;;;;;;;29.35;16.25;;;;;;;4.75;58.80;101422.38;5081087;28;20056;-72
2021/04/09 03:50:03;;;;;;;30.70;14.38;;;;;;;4.81;59.20;101431.56;5058043;28;20052;-73
2021/04/09 03:52:29;;;;;;;32.70;14.75;;;;;;;4.80;59.13;101421.25;5075898;28;20056;-74
2021/04/09 03:54:55;;;;;;;33.88;16.13;;;;;;;4.78;58.94;101412.72;5066977;28;20064;-73
2021/04/09 03:57:22;;;;;;;36.30;15.18;;;;;;;4.77;59.24;101416.25;5068006;28;20055;-73
2021/04/09 03:59:49;;;;;;;31.48;13.70;;;;;;;4.75;59.05;101422.38;5065310;28;20691;-72
2021/04/09 04:02:15;;;;;;;29.38;13.82;;;;;;;4.79;59.01;101422.19;5069527;28;20052;-75
2021/04/09 04:04:41;;;;;;;27.67;13.95;;;;;;;4.75;59.02;101413.75;5076893;28;20159;-74
2021/04/09 04:07:07;;;;;;;36.90;15.95;;;;;;;4.70;59.63;101408.81;5071633;28;20052;-74
2021/04/09 04:09:33;;;;;;;29.23;14.35;;;;;;;4.72;59.68;101412.19;5049728;28;20117;-75
2021/04/09 04:12:00;;;;;;;29.88;14.77;;;;;;;4.75;59.25;101421.53;5053857;28;20504;-75
2021/04/09 04:14:26;;;;;;;29.77;14.18;;;;;;;4.72;59.20;101416.50;5041373;28;20056;-73
2021/04/09 04:16:52;;;;;;;35.03;14.77;;;;;;;4.70;59.29;101414.00;5070168;28;20529;-75
2021/04/09 04:19:18;;;;;;;29.45;14.55;;;;;;;4.70;59.68;101408.81;5079560;28;20612;-75
2021/04/09 04:21:45;;;;;;;30.38;15.15;;;;;;;4.72;59.80;101413.91;5076658;28;20051;-75
2021/04/09 04:24:11;;;;;;;29.40;14.77;;;;;;;4.75;59.64;101424.13;5048093;28;20060;-74
2021/04/09 04:26:37;;;;;;;31.15;15.50;;;;;;;4.74;59.68;101417.25;5068018;28;20132;-73
2021/04/09 04:29:03;;;;;;;38.83;15.82;;;;;;;4.72;59.71;101413.91;5084076;28;20058;-71
2021/04/09 04:31:30;;;;;;;32.40;16.13;;;;;;;4.71;59.31;101418.28;5075050;28;20114;-74
2021/04/09 04:33:56;;;;;;;34.72;15.88;;;;;;;4.72;59.45;101408.72;5078173;28;20089;-74
2021/04/09 04:36:22;;;;;;;41.58;16.02;;;;;;;4.75;59.59;101411.97;5057229;28;20559;-74
2021/04/09 04:38:48;;;;;;;31.35;15.82;;;;;;;4.72;59.49;101406.13;5075202;28;20048;-74
2021/04/09 04:41:17;;;;;;;31.00;14.73;;;;;;;4.75;59.75;101411.97;5076291;28;20040;-74
2021/04/09 04:43:43;;;;;;;37.30;17.10;;;;;;;4.79;59.69;101411.78;5059870;28;20052;-74
2021/04/09 04:46:09;;;;;;;29.30;14.70;;;;;;;4.74;59.61;101405.13;5078215;28;20522;-73
2021/04/09 04:48:35;;;;;;;32.17;15.27;;;;;;;4.67;59.97;101401.22;5078943;28;20060;-74
2021/04/09 04:51:01;;;;;;;27.58;14.20;;;;;;;4.70;59.69;101405.38;5081033;28;20044;-74
2021/04/09 04:53:27;;;;;;;29.88;14.75;;;;;;;4.73;59.73;101405.22;5059456;28;20586;-74
2021/04/09 04:55:54;;;;;;;28.40;15.13;;;;;;;4.73;60.13;101407.81;5072493;28;20050;-75
2021/04/09 04:58:20;;;;;;;28.50;13.70;;;;;;;4.78;59.69;101413.53;5061913;27;20487;-74
2021/04/09 05:00:46;;;;;;;29.80;16.05;;;;;;;4.72;59.84;101398.31;5074846;28;20113;-75
2021/04/09 05:03:12;;;;;;;30.25;14.70;;;;;;;4.71;59.83;101401.88;5071064;28;20052;-75
2021/04/09 05:05:38;;;;;;;30.45;15.52;;;;;;;4.61;60.17;101391.19;5070921;28;20077;-74
2021/04/09 05:08:05;;;;;;;27.40;15.63;;;;;;;4.68;59.71;101392.47;5075231;28;20080;-72
2021/04/09 05:10:31;;;;;;;29.90;15.05;;;;;;;4.66;60.26;101391.72;5074313;28;20052;-72
2021/04/09 05:12:57;;;;;;;32.25;15.70;;;;;;;4.65;60.15;101392.69;5083113;28;20113;-72
2021/04/09 05:15:23;;;;;;;30.52;14.68;;;;;;;4.62;59.88;101392.03;5077933;28;20071;-73
2021/04/09 05:17:49;;;;;;;31.75;15.38;;;;;;;4.68;60.05;101392.47;5079144;28;20054;-73
2021/04/09 05:20:15;;;;;;;38.70;14.38;;;;;;;4.74;60.47;101399.06;5083695;28;20056;-73
2021/04/09 05:22:41;;;;;;;34.90;15.18;;;;;;;4.70;60.34;101392.38;5076032;28;20074;-74
2021/04/09 05:25:08;;;;;;;27.42;14.52;;;;;;;4.70;60.51;101389.78;5085214;28;20731;-75
2021/04/09 05:27:35;;;;;;;27.10;14.27;;;;;;;4.70;60.31;101390.63;5076549;28;20142;-75
2021/04/09 05:30:01;;;;;;;30.67;16.95;;;;;;;4.68;60.42;101382.06;5059934;28;20048;-73
2021/04/09 05:32:27;;;;;;;28.65;15.02;;;;;;;4.75;60.54;101395.56;5070237;28;20047;-73
2021/04/09 05:34:54;;;;;;;32.58;16.05;;;;;;;4.74;60.38;101384.31;5066666;28;20072;-73
2021/04/09 05:37:20;;;;;;;31.80;14.85;;;;;;;4.74;60.98;101389.53;5067161;28;20806;-73
2021/04/09 05:39:46;;;;;;;30.33;15.30;;;;;;;4.72;61.25;101387.94;5059604;28;20056;-75
2021/04/09 05:42:12;;;;;;;30.73;15.00;;;;;;;4.69;61.06;101383.75;5065916;28;20056;-74
2021/04/09 05:44:40;;;;;;;33.75;15.38;;;;;;;4.74;60.97;101399.06;5055607;28;20048;-74
2021/04/09 05:47:09;;;;;;;33.65;16.42;;;;;;;4.72;60.99;101399.19;5062106;28;20060;-74
2021/04/09 05:49:36;;;;;;;34.63;16.70;;;;;;;4.71;60.89;101394.06;5059738;28;20048;-74
2021/04/09 05:52:07;;;;;;;31.70;15.40;;;;;;;4.66;61.24;101385.72;5075742;28;20044;-74
2021/04/09 05:54:34;;;;;;;33.38;16.05;;;;;;;4.81;61.24;101400.38;5068309;28;20080;-74
2021/04/09 05:57:00;;;;;;;36.47;16.83;;;;;;;4.82;61.49;101403.78;5072241;28;20457;-74
2021/04/09 05:59:27;;;;;;;37.63;16.40;;;;;;;4.82;61.24;101401.19;5070272;28;20055;-74
2021/04/09 06:01:55;;;;;;;35.67;16.48;;;;;;;4.84;61.39;101401.94;5070016;28;20074;-74
2021/04/09 06:04:22;;;;;;;;;;;;;;;4.80;61.23;101393.47;5065759;28;20070;-74
2021/04/09 06:06:48;;;;;;;39.47;17.17;;;;;;;4.77;61.02;101379.88;5074426;28;20755;-74
2021/04/09 06:09:15;;;;;;;28.80;14.25;;;;;;;4.79;60.94;101396.19;5083912;28;20047;-74
2021/04/09 06:11:41;;;;;;;30.92;16.00;;;;;;;4.82;61.14;101394.25;5076745;28;20044;-74
2021/04/09 06:14:07;;;;;;;30.50;15.25;;;;;;;4.88;61.23;101399.06;5073312;28;20068;-74
2021/04/09 06:16:33;;;;;;;35.03;15.43;;;;;;;4.87;60.98;101391.34;5063850;28;20039;-74
2021/04/09 06:19:01;;;;;;;34.30;16.33;;;;;;;4.90;60.97;101381.59;5056930;28;20081;-74
2021/04/09 06:21:28;;;;;;;32.08;15.32;;;;;;;4.98;60.92;101388.94;5082445;28;20497;-74
2021/04/09 06:23:54;;;;;;;30.50;15.05;;;;;;;5.06;60.77;101391.06;5058175;28;20052;-74
2021/04/09 06:26:20;;;;;;;28.33;15.88;;;;;;;5.05;60.38;101389.38;5079927;28;20796;-74
2021/04/09 06:28:46;;;;;;;33.00;15.27;;;;;;;5.11;60.01;101386.38;5062104;28;20084;-74
2021/04/09 06:31:12;;;;;;;30.95;15.07;;;;;;;5.20;60.58;101371.97;5065773;28;20048;-74
2021/04/09 06:33:53;;;;;;;30.73;14.38;;;;;;;5.27;59.88;101391.44;5060155;28;20052;-75
2021/04/09 06:36:19;;;;;;;34.30;15.00;;;;;;;5.31;59.48;101387.69;5060289;28;20075;-74
2021/04/09 06:38:45;;;;;;;28.38;13.90;;;;;;;5.35;60.09;101384.81;5075492;28;20044;-74
2021/04/09 06:41:12;;;;;;;34.10;16.52;;;;;;;5.41;59.35;101387.94;5068610;28;20756;-74
2021/04/09 06:43:38;;;;;;;34.10;14.98;;;;;;;5.49;58.94;101388.31;5076269;28;20075;-73
2021/04/09 06:46:05;;;;;;;32.35;16.15;;;;;;;5.55;59.08;101380.91;5070970;28;20101;-73
2021/04/09 06:48:32;;;;;;;28.98;13.73;;;;;;;5.69;59.46;101394.81;5064920;28;20098;-73
2021/04/09 06:50:59;;;;;;;27.60;14.55;;;;;;;5.71;59.00;101383.34;5082738;28;20105;-73
2021/04/09 06:53:28;;;;;;;32.53;15.25;;;;;;;5.82;58.70;101397.41;5069346;28;20052;-73
2021/04/09 06:55:54;;;;;;;34.80;14.82;;;;;;;5.97;58.82;101396.44;5056824;28;20063;-73
2021/04/09 06:58:23;;;;;;;32.85;14.95;;;;;;;6.05;58.52;101399.34;5069148;28;20124;-73
2021/04/09 07:00:51;;;;;;;30.63;15.70;;;;;;;6.11;58.75;101391.13;5053014;28;20048;-73
2021/04/09 07:03:18;;;;;;;31.00;14.70;;;;;;;6.15;57.87;101391.75;5068328;28;20052;-74
2021/04/09 07:05:45;;;;;;;32.97;14.57;;;;;;;6.22;58.75;101381.78;5076776;28;20055;-74
2021/04/09 07:08:11;;;;;;;28.88;14.50;;;;;;;6.24;58.49;101377.28;5069400;28;20059;-73
2021/04/09 07:10:37;;;;;;;29.85;14.68;;;;;;;6.27;58.50;101385.75;5053436;28;20048;-73
2021/04/09 07:13:07;;;;;;;26.58;14.38;;;;;;;6.29;58.65;101381.25;5063394;28;20820;-73
2021/04/09 07:15:42;;;;;;;29.20;14.45;;;;;;;6.36;58.61;101383.44;5075701;28;20055;-73
2021/04/09 07:18:10;;;;;;;32.05;15.18;;;;;;;6.41;58.61;101390.00;5081008;28;20126;-73
2021/04/09 07:20:40;;;;;;;25.30;14.18;;;;;;;6.46;58.40;101389.69;5075318;28;20075;-74
2021/04/09 07:23:08;;;;;;;27.60;13.23;;;;;;;6.48;57.94;101380.81;5050624;28;20126;-74
2021/04/09 07:25:37;;;;;;;30.88;14.45;;;;;;;6.55;58.42;101386.44;5062807;28;20072;-74
2021/04/09 07:28:13;;;;;;;31.13;14.63;;;;;;;6.60;58.37;101370.47;5067179;28;20751;-73
2021/04/09 07:30:54;;;;;;;33.13;15.85;;;;;;;6.71;58.44;101370.56;5075911;28;20083;-74
2021/04/09 07:33:24;;;;;;;26.85;13.48;;;;;;;6.76;57.82;101378.88;5046991;28;20056;-73
2021/04/09 07:35:50;;;;;;;25.00;13.55;;;;;;;6.82;57.71;101378.47;5054980;28;20168;-73
2021/04/09 07:38:25;;;;;;;22.73;13.13;;;;;;;6.82;57.68;101368.03;5061220;28;21016;-72
2021/04/09 07:41:09;;;;;;;30.10;13.43;;;;;;;6.98;57.11;101367.78;5078658;28;20788;-72
2021/04/09 07:43:37;;;;;;;34.65;14.63;;;;;;;7.11;57.34;101383.38;5072430;28;20070;-72
2021/04/09 07:46:06;;;;;;;26.75;13.75;;;;;;;7.11;57.43;101378.16;5071201;28;20093;-73
2021/04/09 07:48:42;;;;;;;26.08;13.35;;;;;;;7.33;57.02;101382.66;5057182;28;20178;-73
2021/04/09 07:51:17;;;;;;;27.30;14.35;;;;;;;7.39;57.52;101387.44;5066828;28;20056;-73
2021/04/09 07:53:45;;;;;;;28.65;13.93;;;;;;;7.50;56.54;101378.81;5075807;28;20051;-73
2021/04/09 07:56:17;;;;;;;26.58;14.15;;;;;;;7.60;57.52;101374.56;5072629;28;20052;-73
2021/04/09 07:58:53;;;;;;;37.13;14.98;;;;;;;7.66;56.93;101381.97;5060052;28;20044;-73
2021/04/09 08:01:22;;;;;;;27.88;13.45;;;;;;;7.59;56.58;101374.72;5072415;28;20055;-73
2021/04/09 08:03:49;;;;;;;;;;;;;;;7.77;56.65;101383.78;5074471;28;20126;-73
2021/04/09 08:06:23;;;;;;;25.33;13.57;;;;;;;7.89;56.62;101375.03;5069123;28;19928;-73
2021/04/09 08:08:49;;;;;;;38.53;14.45;;;;;;;8.04;56.61;101372.22;5079900;28;20487;-73
2021/04/09 08:11:36;;;;;;;29.58;14.48;;;;;;;8.09;56.19;101370.06;5064531;28;20044;-73
2021/04/09 08:14:13;;;;;;;37.33;15.55;;;;;;;8.16;56.06;101368.66;5080663;28;21012;-73
2021/04/09 08:16:41;;;;;;;32.22;16.00;;;;;;;8.23;55.85;101376.84;5070758;28;20117;-73
2021/04/09 08:19:13;;;;;;;28.95;14.32;;;;;;;8.11;55.97;101370.78;5075542;28;20052;-72
2021/04/09 08:21:48;;;;;;;28.50;14.35;;;;;;;8.32;56.33;101381.38;5077489;28;20101;-73
2021/04/09 08:24:16;;;;;;;29.70;14.50;;;;;;;8.38;56.12;101380.91;5069012;28;20056;-73
2021/04/09 08:26:42;;;;;;;28.35;13.25;;;;;;;8.35;56.28;101389.00;5081882;28;20105;-72
2021/04/09 08:29:11;;;;;;;27.40;14.15;;;;;;;8.33;56.02;101385.69;5073157;28;20109;-72
2021/04/09 08:31:38;;;;;;;;;;;;;;;8.43;55.99;101386.66;5077359;28;20099;-73
2021/04/09 08:34:06;;;;;;;32.75;14.30;;;;;;;8.59;56.69;101382.84;5060997;28;20006;-73
2021/04/09 08:36:33;;;;;;;33.20;13.70;;;;;;;8.67;56.90;101383.91;5048344;28;20483;-73
2021/04/09 08:39:00;;;;;;;27.75;14.35;;;;;;;8.73;55.37;101387.00;5079469;28;20079;-73
2021/04/09 08:41:28;;;;;;;29.35;13.80;;;;;;;8.66;55.48;101390.09;5070706;28;20118;-73
2021/04/09 08:43:54;;;;;;;35.22;16.50;;;;;;;8.87;55.71;101399.81;5071067;28;20861;-73
2021/04/09 08:46:21;;;;;;;25.90;13.13;;;;;;;8.99;55.90;101385.75;5053425;28;20063;-73
2021/04/09 08:48:47;;;;;;;27.80;14.52;;;;;;;8.91;54.96;101396.00;5061705;28;20056;-73
2021/04/09 08:51:14;;;;;;;28.90;14.13;;;;;;;8.91;55.05;101394.22;5062654;28;20048;-73
2021/04/09 08:53:41;;;;;;;27.95;14.65;;;;;;;9.04;55.55;101401.94;5049576;28;20052;-73
2021/04/09 08:56:10;;;;;;;31.20;14.60;;;;;;;8.94;55.45;101401.00;5083453;28;20242;-73
2021/04/09 08:58:44;;;;;;;33.72;14.02;;;;;;;8.94;54.83;101403.63;5044786;28;20119;-73
2021/04/09 09:01:12;;;;;;;22.40;11.40;;;;;;;8.82;54.61;101417.66;5073535;28;20047;-73
2021/04/09 09:03:39;;;;;;;28.73;14.27;;;;;;;8.89;54.56;101406.59;5074060;28;20497;-73
2021/04/09 09:06:07;;;;;;;28.70;13.77;;;;;;;8.93;54.70;101412.41;5084566;28;20048;-73
2021/04/09 09:08:42;;;;;;;33.28;15.32;;;;;;;8.84;54.83;101405.28;5064558;28;20056;-74
2021/04/09 09:11:09;;;;;;;39.65;15.77;;;;;;;9.01;55.30;101389.09;5046868;28;20114;-74
2021/04/09 09:13:46;;;;;;;28.85;14.10;;;;;;;9.17;54.58;101391.31;5056940;28;20064;-74
2021/04/09 09:16:17;;;;;;;29.67;13.57;;;;;;;9.41;54.51;101398.97;5064670;28;20049;-74
2021/04/09 09:18:48;;;;;;;23.77;14.20;;;;;;;9.32;53.96;101389.25;5064431;28;20155;-74
2021/04/09 09:21:14;;;;;;;26.73;12.70;;;;;;;9.23;53.62;101400.44;5058308;28;20053;-74
2021/04/09 09:23:40;;;;;;;27.13;11.80;;;;;;;9.39;53.37;101392.19;5072181;28;20657;-73
2021/04/09 09:26:32;;;;;;;29.33;13.93;;;;;;;9.54;53.82;101400.59;5072622;28;20075;-73
2021/04/09 09:29:15;;;;;;;27.05;13.50;;;;;;;9.46;53.09;101403.84;5076844;28;20055;-74
2021/04/09 09:31:47;;;;;;;28.73;12.27;;;;;;;9.43;53.39;101391.84;5067019;28;20116;-74
2021/04/09 09:34:24;;;;;;;27.17;14.10;;;;;;;9.44;53.60;101390.03;5068319;28;20076;-74
2021/04/09 09:37:12;;;;;;;27.13;13.65;;;;;;;9.69;53.38;101389.69;5054676;28;20099;-73
2021/04/09 09:40:02;;;;;;;20.75;11.73;;;;;;;9.67;52.54;101394.22;5068398;28;20521;-74
2021/04/09 09:42:28;;;;;;;24.83;11.93;;;;;;;10.00;52.61;101388.94;5058084;28;20181;-74
2021/04/09 09:44:58;;;;;;;22.98;11.80;;;;;;;10.13;52.40;101389.53;5070887;28;20504;-74
2021/04/09 09:47:31;;;;;;;24.27;11.55;;;;;;;10.35;52.13;101380.75;5056211;28;20407;-74
2021/04/09 09:52:42;;;;;;;21.15;11.65;;;;;;;10.25;51.29;101401.63;5079155;28;20059;-73
2021/04/09 09:55:15;;;;;;;25.20;11.70;;;;;;;10.55;51.79;101400.00;5077783;28;20578;-73
2021/04/09 09:58:09;;;;;;;22.50;11.18;;;;;;;10.87;50.58;101391.94;5065309;28;20101;-74
2021/04/09 10:00:42;;;;;;;26.30;11.73;;;;;;;11.05;50.34;101388.66;5065066;28;20058;-74
2021/04/09 10:03:11;;;;;;;20.75;11.68;;;;;;;11.21;50.32;101383.75;5074738;28;20481;-74
2021/04/09 10:05:38;;;;;;;22.42;10.80;;;;;;;11.10;49.42;101380.41;5072565;28;20051;-74
2021/04/09 10:08:05;;;;;;;21.80;12.50;;;;;;;11.11;50.10;101371.56;5082463;28;20076;-74
2021/04/09 10:10:43;;;;;;;22.52;11.73;;;;;;;11.41;50.09;101379.31;5078028;28;20044;-73
2021/04/09 10:13:19;;;;;;;25.00;11.83;;;;;;;11.58;50.41;101385.66;5082012;28;20047;-74
2021/04/09 10:15:46;;;;;;;22.48;11.75;;;;;;;11.52;48.88;101374.88;5059360;28;20040;-74
2021/04/09 10:18:13;;;;;;;21.98;11.15;;;;;;;11.95;49.13;101373.63;5071723;28;20048;-75
2021/04/09 10:20:39;;;;;;;20.80;10.35;;;;;;;12.36;48.16;101368.94;5081406;28;20052;-74
2021/04/09 10:23:06;;;;;;;18.08;9.65;;;;;;;12.30;47.25;101383.50;5068790;28;20059;-74
2021/04/09 10:25:34;;;;;;;17.65;9.77;;;;;;;12.29;46.68;101368.69;5078200;28;20881;-74
2021/04/09 10:28:04;;;;;;;19.50;11.00;;;;;;;12.14;46.58;101375.38;5067844;28;20044;-74
2021/04/09 10:30:32;;;;;;;18.90;9.95;;;;;;;12.21;47.02;101369.41;5073460;28;20105;-74
2021/04/09 10:32:58;;;;;;;;;;;;;;;12.39;47.59;101376.56;5078888;28;20122;-74
2021/04/09 10:35:26;;;;;;;15.43;8.80;;;;;;;12.25;47.04;101359.41;5075765;28;19923;-74
2021/04/09 10:38:07;;;;;;;16.60;10.00;;;;;;;12.78;47.13;101365.81;5082200;28;20130;-73
2021/04/09 10:40:34;;;;;;;15.55;9.02;;;;;;;12.61;45.26;101367.44;5077538;28;20842;-74
2021/04/09 10:43:01;;;;;;;16.33;9.52;;;;;;;12.57;46.07;101360.81;5079107;28;20142;-74
2021/04/09 10:45:27;;;;;;;15.95;8.70;;;;;;;12.61;46.97;101354.28;5054110;28;20060;-74
2021/04/09 10:47:54;;;;;;;17.85;8.95;;;;;;;12.72;46.40;101358.50;5067871;28;20483;-74
2021/04/09 10:50:21;;;;;;;19.33;8.38;;;;;;;13.00;46.41;101367.22;5049386;28;20051;-74
2021/04/09 10:52:48;;;;;;;15.88;7.82;;;;;;;12.75;44.93;101350.31;5068705;28;20060;-74
2021/04/09 10:55:14;;;;;;;13.95;7.15;;;;;;;12.94;46.09;101357.28;5064203;28;20664;-75
2021/04/09 10:57:40;;;;;;;13.80;6.60;;;;;;;13.09;44.44;101371.56;5039008;28;20052;-75
2021/04/09 11:00:08;;;;;;;14.57;7.18;;;;;;;13.23;44.54;101357.06;5061345;28;20044;-75
2021/04/09 11:02:36;;;;;;;13.67;6.80;;;;;;;13.25;44.27;101348.03;5052507;28;20056;-74
2021/04/09 11:05:03;;;;;;;;;;;;;;;13.21;44.54;101359.84;5075572;28;20056;-75
2021/04/09 11:07:55;;;;;;;11.27;6.45;;;;;;;13.49;43.40;101346.63;5074818;28;19970;-74
2021/04/09 11:10:32;;;;;;;14.98;7.40;;;;;;;13.33;43.61;101341.19;5082512;28;20074;-74
2021/04/09 11:12:58;;;;;;;16.33;8.33;;;;;;;12.95;43.44;101340.50;5075536;28;20109;-74
2021/04/09 11:15:26;;;;;;;15.00;7.85;;;;;;;12.95;44.81;101346.56;5060782;28;20500;-74
2021/04/09 11:17:53;;;;;;;16.13;7.70;;;;;;;12.92;45.21;101343.44;5068986;28;20540;-74
2021/04/09 11:20:25;;;;;;;14.00;7.85;;;;;;;13.08;45.10;101337.50;5063184;28;20769;-74
2021/04/09 11:23:06;;;;;;;16.70;7.30;;;;;;;12.73;44.25;101328.59;5061566;28;20056;-74
2021/04/09 11:25:40;;;;;;;12.82;6.30;;;;;;;12.46;43.85;101333.69;5071615;28;20121;-74
2021/04/09 11:28:22;;;;;;;10.27;5.13;;;;;;;12.84;44.26;101334.47;5064595;28;20135;-73